createdAt,value
2023-05-03T16:02:21.711Z,78.25
2023-05-03T16:03:53.632Z,73.25
2023-05-03T16:05:25.604Z,85.25
2023-05-03T16:06:58.238Z,69.00
2023-05-03T16:08:30.825Z,76.25
2023-05-03T16:10:02.849Z,70.75
2023-05-03T16:11:35.861Z,66.75
2023-05-03T16:13:09.681Z,63.75
2023-05-03T16:14:41.728Z,77.00
2023-05-03T16:16:13.788Z,71.25
2023-05-03T16:17:45.800Z,71.00
2023-05-03T16:19:17.753Z,67.50
2023-05-03T16:20:50.587Z,64.00
2023-05-03T16:22:22.464Z,67.50
2023-05-03T16:23:54.763Z,65.50
2023-05-03T16:25:26.712Z,68.25
2023-05-03T16:26:58.843Z,65.00
2023-05-03T16:28:30.742Z,67.00
2023-05-03T16:30:03.121Z,61.25
2023-05-03T16:31:35.445Z,66.25
2023-05-03T16:33:08.137Z,63.75
2023-05-03T16:34:40.042Z,66.00
2023-05-03T16:36:12.166Z,57.50
2023-05-03T16:37:44.059Z,58.25
2023-05-03T16:39:16.191Z,59.00
2023-05-03T16:40:48.117Z,55.75
2023-05-03T16:42:20.023Z,52.60
2023-05-03T16:43:51.989Z,49.80
2023-05-03T16:45:24.038Z,48.40
2023-05-03T16:46:56.128Z,47.20
2023-05-03T16:48:31.469Z,49.60
2023-05-03T16:50:04.608Z,45.60
2023-05-03T16:51:36.785Z,44.60
2023-05-03T16:53:08.659Z,44.40
2023-05-03T16:54:43.167Z,44.80
2023-05-03T16:56:15.731Z,45.40
2023-05-03T16:57:47.618Z,47.60
2023-05-03T16:59:19.694Z,50.60
2023-05-03T17:00:52.444Z,50.40
2023-05-03T17:02:24.576Z,50.40
2023-05-03T17:03:57.022Z,54.40
2023-05-03T17:05:33.336Z,52.20
2023-05-03T17:07:05.697Z,51.20
2023-05-03T17:08:37.865Z,49.40
2023-05-03T17:10:10.174Z,47.20
2023-05-03T17:11:42.215Z,47.00
2023-05-03T17:13:15.159Z,49.00
2023-05-03T17:14:47.598Z,51.40
2023-05-03T17:16:19.472Z,51.60
2023-05-03T17:17:52.223Z,54.00
2023-05-03T17:19:24.297Z,60.50
2023-05-03T17:21:02.250Z,60.25
2023-05-03T17:22:34.152Z,62.00
2023-05-03T17:24:06.361Z,64.25
2023-05-03T17:25:38.272Z,59.75
2023-05-03T17:27:10.149Z,62.00
2023-05-03T17:28:43.630Z,60.50
2023-05-03T17:30:15.871Z,66.50
2023-05-03T17:31:47.807Z,57.00
2023-05-03T17:33:19.675Z,68.50
2023-05-03T17:34:51.586Z,71.00
2023-05-03T17:36:23.581Z,74.50
2023-05-03T17:37:57.260Z,82.00
2023-05-03T17:39:29.198Z,80.75
2023-05-03T17:41:07.791Z,87.50
2023-05-03T17:42:39.703Z,89.00
2023-05-03T17:44:12.569Z,83.50
2023-05-03T17:45:45.053Z,92.50
2023-05-03T17:47:17.018Z,89.50
2023-05-03T17:48:48.963Z,89.75
2023-05-03T17:50:20.897Z,88.00
2023-05-03T17:51:52.821Z,105.20
2023-05-03T17:53:24.763Z,100.40
2023-05-03T17:54:57.167Z,94.75
2023-05-03T17:56:29.017Z,95.60
2023-05-03T17:58:00.867Z,98.00
2023-05-03T17:59:33.111Z,106.00
2023-05-03T18:01:05.464Z,93.80
2023-05-03T18:02:37.464Z,93.60
2023-05-03T18:04:10.412Z,96.00
2023-05-03T18:05:45.266Z,89.25
2023-05-03T18:07:17.130Z,89.60
2023-05-03T18:08:48.983Z,107.60
2023-05-03T18:10:20.977Z,99.00
2023-05-03T18:11:54.626Z,112.80
2023-05-03T18:13:27.093Z,101.75
2023-05-03T18:15:01.869Z,111.00
2023-05-03T18:16:33.752Z,100.00
2023-05-03T18:18:05.807Z,116.00
2023-05-03T18:19:37.790Z,106.60
2023-05-03T18:21:11.829Z,112.20
2023-05-03T18:22:43.764Z,110.60
2023-05-03T18:24:16.130Z,116.40
2023-05-03T18:25:48.088Z,115.80
2023-05-03T18:27:22.145Z,109.50
2023-05-03T18:28:54.068Z,106.40
2023-05-03T18:30:29.461Z,113.80
2023-05-03T18:32:01.501Z,110.60
2023-05-03T18:33:34.138Z,108.60
2023-05-03T18:35:08.019Z,112.00
2023-05-03T18:36:39.915Z,107.40
2023-05-03T18:38:11.770Z,110.40
2023-05-03T18:39:44.365Z,106.20
2023-05-03T18:41:17.041Z,113.20
2023-05-03T18:42:49.002Z,106.20
2023-05-03T18:44:24.058Z,105.60
2023-05-03T18:45:56.067Z,104.80
2023-05-03T18:47:28.240Z,100.80
2023-05-03T18:49:03.346Z,101.40
2023-05-03T18:50:36.268Z,100.00
2023-05-03T18:52:08.154Z,99.00
2023-05-03T18:53:40.054Z,93.75
2023-05-03T18:55:12.072Z,102.00
2023-05-03T18:56:44.060Z,198.33
2023-05-03T18:58:16.001Z,327.25
2023-05-03T18:59:59.524Z,267.25
2023-05-03T19:01:33.736Z,228.00
2023-05-03T19:03:06.473Z,190.75
2023-05-03T19:04:38.578Z,173.00
2023-05-03T19:06:11.534Z,146.75
2023-05-03T19:07:46.830Z,151.75
2023-05-03T19:09:18.884Z,141.25
2023-05-03T19:10:50.808Z,140.00
2023-05-03T19:12:23.058Z,140.25
2023-05-03T19:13:54.990Z,127.75
2023-05-03T19:15:27.368Z,121.00
2023-05-03T19:16:59.482Z,116.75
2023-05-03T19:18:32.089Z,116.25
2023-05-03T19:20:05.522Z,126.00
2023-05-03T19:21:42.258Z,122.50
2023-05-03T19:23:14.111Z,123.50
2023-05-03T19:24:46.178Z,107.60
2023-05-03T19:26:18.055Z,112.20
2023-05-03T19:27:49.984Z,104.00
2023-05-03T19:29:22.005Z,99.60
2023-05-03T19:30:54.396Z,105.40
2023-05-03T19:32:26.656Z,102.20
2023-05-03T19:33:58.837Z,100.20
2023-05-03T19:35:30.725Z,94.50
2023-05-03T19:37:02.629Z,91.00
2023-05-03T19:38:36.554Z,98.50
2023-05-03T19:40:09.310Z,100.50
2023-05-03T19:41:41.257Z,88.00
2023-05-03T19:43:13.180Z,91.00
2023-05-03T19:44:45.114Z,90.75
2023-05-03T19:46:19.890Z,106.20
2023-05-03T19:47:51.939Z,103.50
2023-05-03T19:49:24.873Z,107.20
2023-05-03T19:50:56.906Z,108.20
2023-05-03T19:52:28.775Z,105.00
2023-05-03T19:54:03.413Z,111.00
2023-05-03T19:55:35.398Z,102.00
2023-05-03T19:57:07.796Z,99.00
2023-05-03T19:58:40.128Z,106.00
2023-05-03T20:00:14.448Z,106.40
2023-05-03T20:01:46.432Z,93.80
2023-05-03T20:03:18.746Z,102.60
2023-05-03T20:04:50.826Z,103.00
2023-05-03T20:06:22.780Z,103.60
2023-05-03T20:07:54.788Z,95.80
2023-05-03T20:09:26.698Z,100.50
2023-05-03T20:10:58.877Z,103.40
2023-05-03T20:12:30.875Z,106.40
2023-05-03T20:14:02.763Z,91.25
2023-05-03T20:15:35.992Z,102.50
2023-05-03T20:17:08.114Z,96.25
2023-05-03T20:18:40.302Z,89.50
2023-05-03T20:20:13.285Z,93.80
2023-05-03T20:21:45.230Z,108.40
2023-05-03T20:23:17.436Z,96.00
2023-05-03T20:24:51.812Z,87.00
2023-05-03T20:26:24.623Z,84.25
2023-05-03T20:27:56.540Z,80.50
2023-05-03T20:29:28.430Z,72.25
2023-05-03T20:31:00.284Z,120.25
2023-05-03T20:32:32.301Z,287.75
2023-05-03T20:34:04.276Z,124.25
2023-05-03T20:35:39.195Z,144.25
2023-05-03T20:37:11.094Z,133.75
2023-05-03T20:38:43.125Z,124.75
2023-05-03T20:40:15.847Z,127.00
2023-05-03T20:41:47.789Z,117.75
2023-05-03T20:43:19.896Z,110.25
2023-05-03T20:44:52.251Z,112.75
2023-05-03T20:46:24.170Z,115.25
2023-05-03T20:47:56.516Z,111.20
2023-05-03T20:49:28.478Z,113.25
2023-05-03T20:51:00.962Z,111.80
2023-05-03T20:52:33.203Z,110.00
2023-05-03T20:54:05.102Z,116.40
2023-05-03T20:55:38.739Z,112.60
2023-05-03T20:57:12.625Z,100.80
2023-05-03T20:58:45.475Z,109.00
2023-05-03T21:00:17.762Z,95.00
2023-05-03T21:01:49.679Z,113.20
2023-05-03T21:03:23.748Z,101.00
2023-05-03T21:04:55.788Z,103.60
2023-05-03T21:06:27.633Z,109.60
2023-05-03T21:07:59.524Z,104.40
2023-05-03T21:09:31.674Z,95.75
2023-05-03T21:11:04.391Z,93.25
2023-05-03T21:12:36.277Z,94.25
2023-05-03T21:14:08.771Z,89.75
2023-05-03T21:15:40.785Z,94.00
2023-05-03T21:17:12.675Z,95.50
2023-05-03T21:18:44.754Z,87.00
2023-05-03T21:20:16.822Z,114.00
2023-05-03T21:21:48.753Z,328.75
2023-05-03T21:23:20.669Z,146.75
2023-05-03T21:24:52.642Z,141.50
2023-05-03T21:26:24.510Z,154.75
2023-05-03T21:27:56.498Z,148.50
2023-05-03T21:29:28.684Z,130.50
2023-05-03T21:31:00.528Z,138.25
2023-05-03T21:32:33.610Z,122.50
2023-05-03T21:34:05.902Z,122.25
2023-05-03T21:35:37.786Z,135.25
2023-05-03T21:37:09.753Z,136.75
2023-05-03T21:38:42.088Z,114.75
2023-05-03T21:40:15.266Z,118.00
2023-05-03T21:41:47.366Z,123.75
2023-05-03T21:43:19.917Z,116.75
2023-05-03T21:44:51.951Z,119.00
2023-05-03T21:46:23.935Z,116.00
2023-05-03T21:47:56.014Z,110.25
2023-05-03T21:49:27.935Z,121.50
2023-05-03T21:50:59.780Z,117.25
2023-05-03T21:52:33.185Z,111.00
2023-05-03T21:54:05.150Z,102.40
2023-05-03T21:55:37.031Z,107.40
2023-05-03T21:57:09.149Z,109.20
2023-05-03T21:58:46.859Z,113.20
2023-05-03T22:00:20.962Z,111.60
2023-05-03T22:01:53.002Z,105.20
2023-05-03T22:03:24.968Z,101.60
2023-05-03T22:04:56.959Z,106.20
2023-05-03T22:06:28.857Z,107.80
2023-05-03T22:08:01.613Z,102.60
2023-05-03T22:09:33.626Z,105.40
2023-05-03T22:11:07.115Z,102.25
2023-05-03T22:12:39.451Z,120.00
2023-05-03T22:14:11.378Z,108.25
2023-05-03T22:15:43.266Z,120.00
2023-05-03T22:17:15.208Z,107.50
2023-05-03T22:18:47.136Z,115.00
2023-05-03T22:20:19.006Z,102.00
2023-05-03T22:21:50.854Z,114.25
2023-05-03T22:23:22.911Z,121.25
2023-05-03T22:24:55.368Z,121.75
2023-05-03T22:26:27.513Z,114.00
2023-05-03T22:27:59.688Z,118.75
2023-05-03T22:29:31.739Z,105.80
2023-05-03T22:31:03.643Z,117.00
2023-05-03T22:32:35.744Z,110.40
2023-05-03T22:34:07.613Z,115.60
